sensor_id;sensor_type;location;lat;lon;timestamp;P1;durP1;ratioP1;P2;durP2;ratioP2
67597;SDS011;62026;39.230;9.122;2023-06-10T00:00:42;17.77;;;5.93;;
67597;SDS011;62026;39.230;9.122;2023-06-10T00:03:09;20.92;;;6.60;;
67597;SDS011;62026;39.230;9.122;2023-06-10T00:05:36;20.25;;;6.97;;
67597;SDS011;62026;39.230;9.122;2023-06-10T00:08:04;22.80;;;6.75;;
67597;SDS011;62026;39.230;9.122;2023-06-10T00:10:37;19.45;;;6.07;;
67597;SDS011;62026;39.230;9.122;2023-06-10T00:13:04;17.13;;;6.28;;
67597;SDS011;62026;39.230;9.122;2023-06-10T00:15:34;17.58;;;6.78;;
67597;SDS011;62026;39.230;9.122;2023-06-10T00:18:03;18.60;;;5.93;;
67597;SDS011;62026;39.230;9.122;2023-06-10T00:20:30;17.17;;;6.32;;
67597;SDS011;62026;39.230;9.122;2023-06-10T00:22:57;18.00;;;6.10;;
67597;SDS011;62026;39.230;9.122;2023-06-10T00:25:24;19.25;;;6.03;;
67597;SDS011;62026;39.230;9.122;2023-06-10T00:27:51;17.48;;;6.03;;
67597;SDS011;62026;39.230;9.122;2023-06-10T00:30:17;17.73;;;5.93;;
67597;SDS011;62026;39.230;9.122;2023-06-10T00:32:43;13.85;;;5.57;;
67597;SDS011;62026;39.230;9.122;2023-06-10T00:35:09;19.75;;;6.22;;
67597;SDS011;62026;39.230;9.122;2023-06-10T00:37:35;15.50;;;6.10;;
67597;SDS011;62026;39.230;9.122;2023-06-10T00:40:02;11.35;;;6.10;;
67597;SDS011;62026;39.230;9.122;2023-06-10T00:42:31;15.98;;;6.03;;
67597;SDS011;62026;39.230;9.122;2023-06-10T00:44:57;16.60;;;6.10;;
67597;SDS011;62026;39.230;9.122;2023-06-10T00:47:23;17.05;;;6.25;;
67597;SDS011;62026;39.230;9.122;2023-06-10T00:49:50;16.92;;;5.72;;
67597;SDS011;62026;39.230;9.122;2023-06-10T00:52:17;15.90;;;5.85;;
67597;SDS011;62026;39.230;9.122;2023-06-10T00:54:47;12.57;;;5.70;;
67597;SDS011;62026;39.230;9.122;2023-06-10T00:57:14;14.52;;;5.63;;
67597;SDS011;62026;39.230;9.122;2023-06-10T00:59:41;15.90;;;5.95;;
67597;SDS011;62026;39.230;9.122;2023-06-10T01:02:13;13.10;;;5.95;;
67597;SDS011;62026;39.230;9.122;2023-06-10T01:04:39;15.40;;;6.05;;
67597;SDS011;62026;39.230;9.122;2023-06-10T01:07:09;11.85;;;5.60;;
67597;SDS011;62026;39.230;9.122;2023-06-10T01:13:20;13.75;;;5.40;;
67597;SDS011;62026;39.230;9.122;2023-06-10T01:15:50;13.95;;;5.78;;
67597;SDS011;62026;39.230;9.122;2023-06-10T01:18:17;13.55;;;5.97;;
67597;SDS011;62026;39.230;9.122;2023-06-10T01:20:43;28.13;;;5.90;;
67597;SDS011;62026;39.230;9.122;2023-06-10T01:23:11;14.93;;;5.85;;
67597;SDS011;62026;39.230;9.122;2023-06-10T01:25:38;12.85;;;5.22;;
67597;SDS011;62026;39.230;9.122;2023-06-10T01:28:14;19.83;;;6.07;;
67597;SDS011;62026;39.230;9.122;2023-06-10T01:33:59;13.68;;;5.82;;
67597;SDS011;62026;39.230;9.122;2023-06-10T01:36:29;15.77;;;6.30;;
67597;SDS011;62026;39.230;9.122;2023-06-10T01:38:58;22.00;;;6.30;;
67597;SDS011;62026;39.230;9.122;2023-06-10T01:41:26;16.98;;;6.18;;
67597;SDS011;62026;39.230;9.122;2023-06-10T01:43:54;17.23;;;5.70;;
67597;SDS011;62026;39.230;9.122;2023-06-10T01:46:20;18.90;;;5.72;;
67597;SDS011;62026;39.230;9.122;2023-06-10T01:48:47;17.25;;;5.90;;
67597;SDS011;62026;39.230;9.122;2023-06-10T01:51:17;16.95;;;6.22;;
67597;SDS011;62026;39.230;9.122;2023-06-10T01:53:43;13.27;;;5.47;;
67597;SDS011;62026;39.230;9.122;2023-06-10T01:56:10;19.13;;;5.78;;
67597;SDS011;62026;39.230;9.122;2023-06-10T01:58:41;15.23;;;6.00;;
67597;SDS011;62026;39.230;9.122;2023-06-10T02:01:08;15.35;;;5.82;;
67597;SDS011;62026;39.230;9.122;2023-06-10T02:03:36;13.77;;;5.32;;
67597;SDS011;62026;39.230;9.122;2023-06-10T02:06:02;16.55;;;5.40;;
67597;SDS011;62026;39.230;9.122;2023-06-10T02:08:28;17.85;;;5.78;;
67597;SDS011;62026;39.230;9.122;2023-06-10T02:10:54;14.80;;;5.78;;
67597;SDS011;62026;39.230;9.122;2023-06-10T02:13:20;20.92;;;6.22;;
67597;SDS011;62026;39.230;9.122;2023-06-10T02:15:51;16.42;;;5.35;;
67597;SDS011;62026;39.230;9.122;2023-06-10T02:18:18;15.13;;;5.95;;
67597;SDS011;62026;39.230;9.122;2023-06-10T02:20:46;18.95;;;5.63;;
67597;SDS011;62026;39.230;9.122;2023-06-10T02:23:12;19.00;;;6.43;;
67597;SDS011;62026;39.230;9.122;2023-06-10T02:25:38;16.02;;;6.07;;
67597;SDS011;62026;39.230;9.122;2023-06-10T02:28:04;19.08;;;5.72;;
67597;SDS011;62026;39.230;9.122;2023-06-10T02:30:30;21.13;;;5.30;;
67597;SDS011;62026;39.230;9.122;2023-06-10T02:32:56;21.70;;;6.20;;
67597;SDS011;62026;39.230;9.122;2023-06-10T02:35:24;22.40;;;6.15;;
67597;SDS011;62026;39.230;9.122;2023-06-10T02:37:52;17.70;;;5.55;;
67597;SDS011;62026;39.230;9.122;2023-06-10T02:40:19;18.77;;;6.20;;
67597;SDS011;62026;39.230;9.122;2023-06-10T02:42:45;19.33;;;7.07;;
67597;SDS011;62026;39.230;9.122;2023-06-10T02:45:11;17.98;;;6.75;;
67597;SDS011;62026;39.230;9.122;2023-06-10T02:47:42;21.35;;;7.65;;
67597;SDS011;62026;39.230;9.122;2023-06-10T02:50:09;16.23;;;7.95;;
67597;SDS011;62026;39.230;9.122;2023-06-10T02:52:43;16.77;;;7.97;;
67597;SDS011;62026;39.230;9.122;2023-06-10T02:55:09;19.60;;;8.52;;
67597;SDS011;62026;39.230;9.122;2023-06-10T02:57:37;22.98;;;9.70;;
67597;SDS011;62026;39.230;9.122;2023-06-10T03:00:04;22.40;;;10.48;;
67597;SDS011;62026;39.230;9.122;2023-06-10T03:02:35;21.27;;;10.67;;
67597;SDS011;62026;39.230;9.122;2023-06-10T03:05:03;18.80;;;10.60;;
67597;SDS011;62026;39.230;9.122;2023-06-10T03:07:30;22.33;;;11.50;;
67597;SDS011;62026;39.230;9.122;2023-06-10T03:09:58;22.50;;;12.65;;
67597;SDS011;62026;39.230;9.122;2023-06-10T03:12:25;26.85;;;11.70;;
67597;SDS011;62026;39.230;9.122;2023-06-10T03:14:51;29.20;;;13.40;;
67597;SDS011;62026;39.230;9.122;2023-06-10T03:17:17;27.15;;;12.32;;
67597;SDS011;62026;39.230;9.122;2023-06-10T03:19:44;23.30;;;12.75;;
67597;SDS011;62026;39.230;9.122;2023-06-10T03:22:11;26.73;;;12.15;;
67597;SDS011;62026;39.230;9.122;2023-06-10T03:24:57;30.00;;;13.18;;
67597;SDS011;62026;39.230;9.122;2023-06-10T03:27:26;31.42;;;12.85;;
67597;SDS011;62026;39.230;9.122;2023-06-10T03:29:55;26.92;;;12.60;;
67597;SDS011;62026;39.230;9.122;2023-06-10T03:32:21;28.52;;;12.88;;
67597;SDS011;62026;39.230;9.122;2023-06-10T03:34:47;27.40;;;12.73;;
67597;SDS011;62026;39.230;9.122;2023-06-10T03:37:13;28.77;;;12.40;;
67597;SDS011;62026;39.230;9.122;2023-06-10T03:39:41;25.40;;;11.70;;
67597;SDS011;62026;39.230;9.122;2023-06-10T03:42:07;27.77;;;11.75;;
67597;SDS011;62026;39.230;9.122;2023-06-10T03:44:33;27.67;;;12.88;;
67597;SDS011;62026;39.230;9.122;2023-06-10T03:46:59;25.65;;;12.02;;
67597;SDS011;62026;39.230;9.122;2023-06-10T03:49:26;25.55;;;13.10;;
67597;SDS011;62026;39.230;9.122;2023-06-10T03:51:56;35.33;;;13.38;;
67597;SDS011;62026;39.230;9.122;2023-06-10T03:54:23;28.63;;;12.77;;
67597;SDS011;62026;39.230;9.122;2023-06-10T03:56:48;22.30;;;11.02;;
67597;SDS011;62026;39.230;9.122;2023-06-10T03:59:15;23.58;;;10.70;;
67597;SDS011;62026;39.230;9.122;2023-06-10T04:01:42;28.80;;;10.88;;
67597;SDS011;62026;39.230;9.122;2023-06-10T04:04:09;26.70;;;10.90;;
67597;SDS011;62026;39.230;9.122;2023-06-10T04:06:36;21.23;;;10.35;;
67597;SDS011;62026;39.230;9.122;2023-06-10T04:09:02;19.27;;;9.68;;
67597;SDS011;62026;39.230;9.122;2023-06-10T04:11:28;23.40;;;9.70;;
67597;SDS011;62026;39.230;9.122;2023-06-10T04:13:56;24.63;;;9.73;;
67597;SDS011;62026;39.230;9.122;2023-06-10T04:16:23;18.48;;;10.23;;
67597;SDS011;62026;39.230;9.122;2023-06-10T04:18:50;21.55;;;10.27;;
67597;SDS011;62026;39.230;9.122;2023-06-10T04:21:16;24.13;;;9.30;;
67597;SDS011;62026;39.230;9.122;2023-06-10T04:23:43;17.40;;;8.40;;
67597;SDS011;62026;39.230;9.122;2023-06-10T04:26:09;19.23;;;8.68;;
67597;SDS011;62026;39.230;9.122;2023-06-10T04:28:38;14.65;;;8.13;;
67597;SDS011;62026;39.230;9.122;2023-06-10T04:31:04;20.83;;;9.07;;
67597;SDS011;62026;39.230;9.122;2023-06-10T04:33:30;22.52;;;8.45;;
67597;SDS011;62026;39.230;9.122;2023-06-10T04:35:57;19.38;;;8.27;;
67597;SDS011;62026;39.230;9.122;2023-06-10T04:38:26;24.27;;;8.70;;
67597;SDS011;62026;39.230;9.122;2023-06-10T04:40:52;22.85;;;9.10;;
67597;SDS011;62026;39.230;9.122;2023-06-10T04:43:20;32.45;;;9.02;;
67597;SDS011;62026;39.230;9.122;2023-06-10T04:45:47;21.52;;;8.80;;
67597;SDS011;62026;39.230;9.122;2023-06-10T04:48:13;20.67;;;8.95;;
67597;SDS011;62026;39.230;9.122;2023-06-10T04:50:39;28.27;;;9.68;;
67597;SDS011;62026;39.230;9.122;2023-06-10T04:53:05;23.50;;;8.95;;
67597;SDS011;62026;39.230;9.122;2023-06-10T04:55:36;18.17;;;8.38;;
67597;SDS011;62026;39.230;9.122;2023-06-10T04:58:02;28.52;;;9.07;;
67597;SDS011;62026;39.230;9.122;2023-06-10T05:00:28;30.55;;;9.02;;
67597;SDS011;62026;39.230;9.122;2023-06-10T05:02:54;20.35;;;8.82;;
67597;SDS011;62026;39.230;9.122;2023-06-10T05:05:21;22.60;;;9.07;;
67597;SDS011;62026;39.230;9.122;2023-06-10T05:07:47;19.77;;;7.95;;
67597;SDS011;62026;39.230;9.122;2023-06-10T05:10:13;26.98;;;9.77;;
67597;SDS011;62026;39.230;9.122;2023-06-10T05:12:40;25.38;;;8.48;;
67597;SDS011;62026;39.230;9.122;2023-06-10T05:15:07;22.52;;;8.02;;
67597;SDS011;62026;39.230;9.122;2023-06-10T05:17:34;27.05;;;9.00;;
67597;SDS011;62026;39.230;9.122;2023-06-10T05:20:03;26.88;;;9.52;;
67597;SDS011;62026;39.230;9.122;2023-06-10T05:22:30;25.10;;;8.32;;
67597;SDS011;62026;39.230;9.122;2023-06-10T05:24:56;20.08;;;8.30;;
67597;SDS011;62026;39.230;9.122;2023-06-10T05:27:22;21.65;;;8.38;;
67597;SDS011;62026;39.230;9.122;2023-06-10T05:29:48;29.42;;;8.77;;
67597;SDS011;62026;39.230;9.122;2023-06-10T05:32:14;23.23;;;8.35;;
67597;SDS011;62026;39.230;9.122;2023-06-10T05:34:39;20.83;;;8.05;;
67597;SDS011;62026;39.230;9.122;2023-06-10T05:37:05;24.58;;;9.05;;
67597;SDS011;62026;39.230;9.122;2023-06-10T05:39:31;24.00;;;8.48;;
67597;SDS011;62026;39.230;9.122;2023-06-10T05:41:57;23.85;;;8.38;;
67597;SDS011;62026;39.230;9.122;2023-06-10T05:44:24;22.33;;;8.65;;
67597;SDS011;62026;39.230;9.122;2023-06-10T05:46:50;23.58;;;9.25;;
67597;SDS011;62026;39.230;9.122;2023-06-10T05:49:16;21.35;;;8.90;;
67597;SDS011;62026;39.230;9.122;2023-06-10T05:51:42;21.25;;;8.07;;
67597;SDS011;62026;39.230;9.122;2023-06-10T05:54:08;24.52;;;7.93;;
67597;SDS011;62026;39.230;9.122;2023-06-10T05:56:34;25.80;;;8.40;;
67597;SDS011;62026;39.230;9.122;2023-06-10T05:59:00;19.88;;;8.43;;
67597;SDS011;62026;39.230;9.122;2023-06-10T06:01:26;22.60;;;8.90;;
67597;SDS011;62026;39.230;9.122;2023-06-10T06:03:52;25.95;;;9.40;;
67597;SDS011;62026;39.230;9.122;2023-06-10T06:06:18;29.58;;;9.50;;
67597;SDS011;62026;39.230;9.122;2023-06-10T06:08:45;30.27;;;9.25;;
67597;SDS011;62026;39.230;9.122;2023-06-10T06:11:11;24.70;;;10.32;;
67597;SDS011;62026;39.230;9.122;2023-06-10T06:13:38;21.95;;;8.95;;
67597;SDS011;62026;39.230;9.122;2023-06-10T06:16:05;22.48;;;9.05;;
67597;SDS011;62026;39.230;9.122;2023-06-10T06:18:30;26.52;;;8.93;;
67597;SDS011;62026;39.230;9.122;2023-06-10T06:20:57;26.88;;;8.73;;
67597;SDS011;62026;39.230;9.122;2023-06-10T06:23:22;20.55;;;8.30;;
67597;SDS011;62026;39.230;9.122;2023-06-10T06:25:48;22.52;;;8.23;;
67597;SDS011;62026;39.230;9.122;2023-06-10T06:28:14;20.05;;;7.97;;
67597;SDS011;62026;39.230;9.122;2023-06-10T06:30:40;21.85;;;8.80;;
67597;SDS011;62026;39.230;9.122;2023-06-10T06:33:06;23.85;;;7.95;;
67597;SDS011;62026;39.230;9.122;2023-06-10T06:35:33;25.33;;;8.70;;
67597;SDS011;62026;39.230;9.122;2023-06-10T06:37:59;21.20;;;8.10;;
67597;SDS011;62026;39.230;9.122;2023-06-10T06:40:27;24.00;;;8.07;;
67597;SDS011;62026;39.230;9.122;2023-06-10T06:42:53;26.83;;;7.93;;
67597;SDS011;62026;39.230;9.122;2023-06-10T06:45:34;23.00;;;7.68;;
67597;SDS011;62026;39.230;9.122;2023-06-10T06:48:00;21.23;;;6.97;;
67597;SDS011;62026;39.230;9.122;2023-06-10T06:50:26;18.27;;;6.63;;
67597;SDS011;62026;39.230;9.122;2023-06-10T06:52:52;18.88;;;6.78;;
67597;SDS011;62026;39.230;9.122;2023-06-10T06:55:18;25.83;;;8.43;;
67597;SDS011;62026;39.230;9.122;2023-06-10T06:57:44;22.45;;;7.15;;
67597;SDS011;62026;39.230;9.122;2023-06-10T07:00:11;19.70;;;6.30;;
67597;SDS011;62026;39.230;9.122;2023-06-10T07:02:38;20.02;;;6.18;;
67597;SDS011;62026;39.230;9.122;2023-06-10T07:05:05;24.25;;;6.95;;
67597;SDS011;62026;39.230;9.122;2023-06-10T07:07:33;25.75;;;7.07;;
67597;SDS011;62026;39.230;9.122;2023-06-10T07:09:59;25.48;;;7.18;;
67597;SDS011;62026;39.230;9.122;2023-06-10T07:12:25;18.95;;;6.75;;
67597;SDS011;62026;39.230;9.122;2023-06-10T07:14:51;29.13;;;6.97;;
67597;SDS011;62026;39.230;9.122;2023-06-10T07:17:17;21.42;;;6.72;;
67597;SDS011;62026;39.230;9.122;2023-06-10T07:19:44;23.05;;;6.95;;
67597;SDS011;62026;39.230;9.122;2023-06-10T07:22:10;19.48;;;6.30;;
67597;SDS011;62026;39.230;9.122;2023-06-10T07:24:37;21.10;;;5.72;;
67597;SDS011;62026;39.230;9.122;2023-06-10T07:27:03;19.35;;;5.43;;
67597;SDS011;62026;39.230;9.122;2023-06-10T07:29:30;20.33;;;5.68;;
67597;SDS011;62026;39.230;9.122;2023-06-10T07:31:56;21.30;;;5.97;;
67597;SDS011;62026;39.230;9.122;2023-06-10T07:34:22;25.58;;;5.95;;
67597;SDS011;62026;39.230;9.122;2023-06-10T07:36:48;23.20;;;6.10;;
67597;SDS011;62026;39.230;9.122;2023-06-10T07:39:14;15.43;;;5.43;;
67597;SDS011;62026;39.230;9.122;2023-06-10T07:41:40;18.88;;;6.53;;
67597;SDS011;62026;39.230;9.122;2023-06-10T07:44:06;18.33;;;5.45;;
67597;SDS011;62026;39.230;9.122;2023-06-10T07:46:32;15.40;;;5.50;;
67597;SDS011;62026;39.230;9.122;2023-06-10T07:48:58;26.50;;;6.57;;
67597;SDS011;62026;39.230;9.122;2023-06-10T07:51:24;14.68;;;5.40;;
67597;SDS011;62026;39.230;9.122;2023-06-10T07:53:50;21.55;;;5.72;;
67597;SDS011;62026;39.230;9.122;2023-06-10T07:56:16;15.32;;;5.55;;
67597;SDS011;62026;39.230;9.122;2023-06-10T07:58:42;17.10;;;5.50;;
67597;SDS011;62026;39.230;9.122;2023-06-10T08:01:08;19.25;;;4.72;;
67597;SDS011;62026;39.230;9.122;2023-06-10T08:03:34;19.20;;;5.22;;
67597;SDS011;62026;39.230;9.122;2023-06-10T08:06:00;20.55;;;6.20;;
67597;SDS011;62026;39.230;9.122;2023-06-10T08:08:26;25.88;;;6.25;;
67597;SDS011;62026;39.230;9.122;2023-06-10T08:10:52;18.63;;;4.70;;
67597;SDS011;62026;39.230;9.122;2023-06-10T08:13:18;16.45;;;5.40;;
67597;SDS011;62026;39.230;9.122;2023-06-10T08:15:44;15.45;;;4.90;;
67597;SDS011;62026;39.230;9.122;2023-06-10T08:18:10;18.77;;;4.65;;
67597;SDS011;62026;39.230;9.122;2023-06-10T08:20:36;21.58;;;4.97;;
67597;SDS011;62026;39.230;9.122;2023-06-10T08:23:02;21.95;;;4.85;;
67597;SDS011;62026;39.230;9.122;2023-06-10T08:25:27;19.15;;;4.95;;
67597;SDS011;62026;39.230;9.122;2023-06-10T08:27:53;22.70;;;5.47;;
67597;SDS011;62026;39.230;9.122;2023-06-10T08:30:21;18.27;;;4.80;;
67597;SDS011;62026;39.230;9.122;2023-06-10T08:32:48;21.80;;;4.07;;
67597;SDS011;62026;39.230;9.122;2023-06-10T08:35:14;12.10;;;3.85;;
67597;SDS011;62026;39.230;9.122;2023-06-10T08:37:40;14.05;;;3.28;;
67597;SDS011;62026;39.230;9.122;2023-06-10T08:40:06;12.18;;;3.92;;
67597;SDS011;62026;39.230;9.122;2023-06-10T08:45:05;17.63;;;4.45;;
67597;SDS011;62026;39.230;9.122;2023-06-10T08:47:42;18.50;;;3.95;;
67597;SDS011;62026;39.230;9.122;2023-06-10T08:50:11;21.58;;;3.95;;
67597;SDS011;62026;39.230;9.122;2023-06-10T08:52:38;18.38;;;4.03;;
67597;SDS011;62026;39.230;9.122;2023-06-10T08:55:21;24.52;;;3.90;;
67597;SDS011;62026;39.230;9.122;2023-06-10T08:57:55;17.65;;;3.58;;
67597;SDS011;62026;39.230;9.122;2023-06-10T09:00:24;21.85;;;3.92;;
67597;SDS011;62026;39.230;9.122;2023-06-10T09:02:53;19.30;;;3.88;;
67597;SDS011;62026;39.230;9.122;2023-06-10T09:05:21;15.93;;;3.47;;
67597;SDS011;62026;39.230;9.122;2023-06-10T09:07:51;17.15;;;3.28;;
67597;SDS011;62026;39.230;9.122;2023-06-10T09:10:19;15.88;;;3.83;;
67597;SDS011;62026;39.230;9.122;2023-06-10T09:12:45;16.55;;;3.40;;
67597;SDS011;62026;39.230;9.122;2023-06-10T09:15:12;15.98;;;3.50;;
67597;SDS011;62026;39.230;9.122;2023-06-10T09:17:40;18.63;;;3.30;;
67597;SDS011;62026;39.230;9.122;2023-06-10T09:20:07;18.73;;;3.10;;
67597;SDS011;62026;39.230;9.122;2023-06-10T09:22:34;20.10;;;3.78;;
67597;SDS011;62026;39.230;9.122;2023-06-10T09:29:58;20.17;;;4.07;;
67597;SDS011;62026;39.230;9.122;2023-06-10T09:32:24;22.95;;;4.57;;
67597;SDS011;62026;39.230;9.122;2023-06-10T09:34:51;19.98;;;4.28;;
67597;SDS011;62026;39.230;9.122;2023-06-10T09:37:21;16.52;;;4.38;;
67597;SDS011;62026;39.230;9.122;2023-06-10T09:40:00;22.17;;;4.35;;
67597;SDS011;62026;39.230;9.122;2023-06-10T09:42:29;19.33;;;4.28;;
67597;SDS011;62026;39.230;9.122;2023-06-10T09:45:02;17.58;;;3.90;;
67597;SDS011;62026;39.230;9.122;2023-06-10T09:47:30;18.25;;;4.20;;
67597;SDS011;62026;39.230;9.122;2023-06-10T09:49:56;18.67;;;4.20;;
67597;SDS011;62026;39.230;9.122;2023-06-10T09:52:22;20.17;;;4.60;;
67597;SDS011;62026;39.230;9.122;2023-06-10T09:54:50;25.10;;;4.20;;
67597;SDS011;62026;39.230;9.122;2023-06-10T09:57:18;17.05;;;4.15;;
67597;SDS011;62026;39.230;9.122;2023-06-10T09:59:45;127.55;;;12.88;;
67597;SDS011;62026;39.230;9.122;2023-06-10T10:02:14;23.88;;;4.40;;
67597;SDS011;62026;39.230;9.122;2023-06-10T10:04:41;26.38;;;3.92;;
67597;SDS011;62026;39.230;9.122;2023-06-10T10:07:11;16.45;;;4.55;;
67597;SDS011;62026;39.230;9.122;2023-06-10T10:09:40;18.55;;;4.47;;
67597;SDS011;62026;39.230;9.122;2023-06-10T10:12:11;17.15;;;4.55;;
67597;SDS011;62026;39.230;9.122;2023-06-10T10:14:46;19.35;;;4.80;;
67597;SDS011;62026;39.230;9.122;2023-06-10T10:17:15;15.05;;;4.90;;
67597;SDS011;62026;39.230;9.122;2023-06-10T10:19:50;17.98;;;5.03;;
67597;SDS011;62026;39.230;9.122;2023-06-10T10:22:26;21.17;;;4.95;;
67597;SDS011;62026;39.230;9.122;2023-06-10T10:24:57;21.33;;;5.15;;
67597;SDS011;62026;39.230;9.122;2023-06-10T10:27:29;20.73;;;4.80;;
67597;SDS011;62026;39.230;9.122;2023-06-10T10:30:02;14.88;;;4.25;;
67597;SDS011;62026;39.230;9.122;2023-06-10T10:33:08;21.65;;;4.65;;
67597;SDS011;62026;39.230;9.122;2023-06-10T10:35:31;17.25;;;4.80;;
67597;SDS011;62026;39.230;9.122;2023-06-10T10:37:58;18.55;;;4.55;;
67597;SDS011;62026;39.230;9.122;2023-06-10T10:40:25;17.83;;;4.47;;
67597;SDS011;62026;39.230;9.122;2023-06-10T10:42:55;22.67;;;4.85;;
67597;SDS011;62026;39.230;9.122;2023-06-10T10:45:24;19.90;;;4.40;;
67597;SDS011;62026;39.230;9.122;2023-06-10T10:47:54;21.90;;;4.65;;
67597;SDS011;62026;39.230;9.122;2023-06-10T10:50:21;22.73;;;4.30;;
67597;SDS011;62026;39.230;9.122;2023-06-10T10:52:52;20.65;;;4.72;;
67597;SDS011;62026;39.230;9.122;2023-06-10T10:55:25;20.83;;;6.03;;
67597;SDS011;62026;39.230;9.122;2023-06-10T11:00:42;18.35;;;4.63;;
67597;SDS011;62026;39.230;9.122;2023-06-10T11:03:13;20.50;;;4.75;;
67597;SDS011;62026;39.230;9.122;2023-06-10T11:05:45;22.50;;;4.90;;
67597;SDS011;62026;39.230;9.122;2023-06-10T11:08:14;19.92;;;4.63;;
67597;SDS011;62026;39.230;9.122;2023-06-10T11:11:00;16.48;;;4.38;;
67597;SDS011;62026;39.230;9.122;2023-06-10T11:16:29;21.65;;;5.68;;
67597;SDS011;62026;39.230;9.122;2023-06-10T11:19:07;21.15;;;4.90;;
67597;SDS011;62026;39.230;9.122;2023-06-10T11:22:16;26.60;;;5.90;;
67597;SDS011;62026;39.230;9.122;2023-06-10T11:24:31;25.00;;;4.93;;
67597;SDS011;62026;39.230;9.122;2023-06-10T11:32:28;25.58;;;4.53;;
67597;SDS011;62026;39.230;9.122;2023-06-10T11:34:58;19.40;;;4.35;;
67597;SDS011;62026;39.230;9.122;2023-06-10T11:37:25;20.33;;;4.03;;
67597;SDS011;62026;39.230;9.122;2023-06-10T11:39:53;17.88;;;3.97;;
67597;SDS011;62026;39.230;9.122;2023-06-10T11:42:22;23.35;;;4.30;;
67597;SDS011;62026;39.230;9.122;2023-06-10T11:44:52;21.38;;;3.80;;
67597;SDS011;62026;39.230;9.122;2023-06-10T11:47:19;27.95;;;5.47;;
67597;SDS011;62026;39.230;9.122;2023-06-10T11:49:55;18.02;;;3.85;;
67597;SDS011;62026;39.230;9.122;2023-06-10T11:52:30;16.85;;;3.95;;
67597;SDS011;62026;39.230;9.122;2023-06-10T11:55:05;19.15;;;3.85;;
67597;SDS011;62026;39.230;9.122;2023-06-10T11:57:34;29.00;;;3.78;;
67597;SDS011;62026;39.230;9.122;2023-06-10T12:00:05;16.90;;;3.85;;
67597;SDS011;62026;39.230;9.122;2023-06-10T12:02:36;20.98;;;4.22;;
67597;SDS011;62026;39.230;9.122;2023-06-10T12:05:12;17.92;;;4.07;;
67597;SDS011;62026;39.230;9.122;2023-06-10T12:07:39;13.00;;;3.65;;
67597;SDS011;62026;39.230;9.122;2023-06-10T12:10:05;20.75;;;3.92;;
67597;SDS011;62026;39.230;9.122;2023-06-10T12:12:34;21.73;;;4.00;;
67597;SDS011;62026;39.230;9.122;2023-06-10T12:15:02;19.23;;;4.38;;
67597;SDS011;62026;39.230;9.122;2023-06-10T12:20:06;21.05;;;3.60;;
67597;SDS011;62026;39.230;9.122;2023-06-10T12:22:38;20.70;;;4.35;;
67597;SDS011;62026;39.230;9.122;2023-06-10T12:25:10;24.10;;;4.13;;
67597;SDS011;62026;39.230;9.122;2023-06-10T12:27:37;21.92;;;4.65;;
67597;SDS011;62026;39.230;9.122;2023-06-10T12:30:06;24.83;;;4.70;;
67597;SDS011;62026;39.230;9.122;2023-06-10T12:32:40;22.75;;;3.78;;
67597;SDS011;62026;39.230;9.122;2023-06-10T12:35:09;20.85;;;3.78;;
67597;SDS011;62026;39.230;9.122;2023-06-10T12:37:41;22.02;;;3.58;;
67597;SDS011;62026;39.230;9.122;2023-06-10T12:40:27;19.15;;;4.00;;
67597;SDS011;62026;39.230;9.122;2023-06-10T12:42:54;23.42;;;3.63;;
67597;SDS011;62026;39.230;9.122;2023-06-10T12:45:34;25.92;;;3.83;;
67597;SDS011;62026;39.230;9.122;2023-06-10T12:48:20;16.80;;;3.92;;
67597;SDS011;62026;39.230;9.122;2023-06-10T12:50:51;22.25;;;3.25;;
67597;SDS011;62026;39.230;9.122;2023-06-10T12:53:22;27.10;;;4.05;;
67597;SDS011;62026;39.230;9.122;2023-06-10T12:55:52;18.10;;;3.65;;
67597;SDS011;62026;39.230;9.122;2023-06-10T12:58:22;24.80;;;3.63;;
67597;SDS011;62026;39.230;9.122;2023-06-10T13:00:48;14.60;;;3.20;;
67597;SDS011;62026;39.230;9.122;2023-06-10T13:03:18;16.95;;;3.25;;
67597;SDS011;62026;39.230;9.122;2023-06-10T13:05:44;20.95;;;4.07;;
67597;SDS011;62026;39.230;9.122;2023-06-10T13:08:11;19.42;;;3.53;;
67597;SDS011;62026;39.230;9.122;2023-06-10T13:10:42;20.58;;;3.45;;
67597;SDS011;62026;39.230;9.122;2023-06-10T13:13:09;19.70;;;3.38;;
67597;SDS011;62026;39.230;9.122;2023-06-10T13:15:35;19.55;;;3.50;;
67597;SDS011;62026;39.230;9.122;2023-06-10T13:18:02;21.90;;;4.15;;
67597;SDS011;62026;39.230;9.122;2023-06-10T13:20:32;14.40;;;3.22;;
67597;SDS011;62026;39.230;9.122;2023-06-10T13:22:58;18.52;;;3.63;;
67597;SDS011;62026;39.230;9.122;2023-06-10T13:25:24;21.63;;;4.60;;
67597;SDS011;62026;39.230;9.122;2023-06-10T13:27:51;23.17;;;4.00;;
67597;SDS011;62026;39.230;9.122;2023-06-10T13:30:17;17.65;;;3.72;;
67597;SDS011;62026;39.230;9.122;2023-06-10T13:32:43;15.93;;;3.67;;
67597;SDS011;62026;39.230;9.122;2023-06-10T13:35:10;20.73;;;3.72;;
67597;SDS011;62026;39.230;9.122;2023-06-10T13:37:36;16.83;;;3.88;;
67597;SDS011;62026;39.230;9.122;2023-06-10T13:40:02;15.23;;;3.95;;
67597;SDS011;62026;39.230;9.122;2023-06-10T13:42:30;22.63;;;4.55;;
67597;SDS011;62026;39.230;9.122;2023-06-10T13:44:56;28.13;;;5.32;;
67597;SDS011;62026;39.230;9.122;2023-06-10T13:47:23;22.10;;;3.58;;
67597;SDS011;62026;39.230;9.122;2023-06-10T13:49:50;23.77;;;3.63;;
67597;SDS011;62026;39.230;9.122;2023-06-10T13:52:17;20.98;;;3.45;;
67597;SDS011;62026;39.230;9.122;2023-06-10T13:54:44;17.48;;;3.08;;
67597;SDS011;62026;39.230;9.122;2023-06-10T13:57:14;18.92;;;4.35;;
67597;SDS011;62026;39.230;9.122;2023-06-10T13:59:41;20.25;;;3.85;;
67597;SDS011;62026;39.230;9.122;2023-06-10T14:02:07;25.65;;;4.28;;
67597;SDS011;62026;39.230;9.122;2023-06-10T14:04:34;18.85;;;3.53;;
67597;SDS011;62026;39.230;9.122;2023-06-10T14:07:04;23.00;;;4.07;;
67597;SDS011;62026;39.230;9.122;2023-06-10T14:09:30;17.60;;;4.10;;
67597;SDS011;62026;39.230;9.122;2023-06-10T14:11:57;17.42;;;4.32;;
67597;SDS011;62026;39.230;9.122;2023-06-10T14:14:23;21.83;;;3.95;;
67597;SDS011;62026;39.230;9.122;2023-06-10T14:16:50;20.20;;;3.83;;
67597;SDS011;62026;39.230;9.122;2023-06-10T14:19:16;19.00;;;3.55;;
67597;SDS011;62026;39.230;9.122;2023-06-10T14:21:43;21.40;;;3.83;;
67597;SDS011;62026;39.230;9.122;2023-06-10T14:24:09;19.25;;;3.75;;
67597;SDS011;62026;39.230;9.122;2023-06-10T14:26:39;20.25;;;3.88;;
67597;SDS011;62026;39.230;9.122;2023-06-10T14:29:06;19.50;;;4.00;;
67597;SDS011;62026;39.230;9.122;2023-06-10T14:31:33;22.38;;;4.47;;
67597;SDS011;62026;39.230;9.122;2023-06-10T14:34:00;18.85;;;3.70;;
67597;SDS011;62026;39.230;9.122;2023-06-10T14:36:27;18.63;;;4.30;;
67597;SDS011;62026;39.230;9.122;2023-06-10T14:38:54;20.10;;;4.40;;
67597;SDS011;62026;39.230;9.122;2023-06-10T14:41:22;23.40;;;3.78;;
67597;SDS011;62026;39.230;9.122;2023-06-10T14:43:48;18.25;;;3.83;;
67597;SDS011;62026;39.230;9.122;2023-06-10T14:46:15;25.83;;;4.57;;
67597;SDS011;62026;39.230;9.122;2023-06-10T14:48:41;20.75;;;3.90;;
67597;SDS011;62026;39.230;9.122;2023-06-10T14:51:08;22.27;;;3.63;;
67597;SDS011;62026;39.230;9.122;2023-06-10T14:53:35;24.77;;;3.92;;
67597;SDS011;62026;39.230;9.122;2023-06-10T14:56:01;18.00;;;3.67;;
67597;SDS011;62026;39.230;9.122;2023-06-10T14:58:28;19.98;;;4.38;;
67597;SDS011;62026;39.230;9.122;2023-06-10T15:00:54;22.40;;;3.80;;
67597;SDS011;62026;39.230;9.122;2023-06-10T15:03:20;24.25;;;3.55;;
67597;SDS011;62026;39.230;9.122;2023-06-10T15:05:46;18.27;;;3.53;;